Weather at Peshirovo Sveti Nikole Airfield

Public forecast

Using degrees Celsius for public forecast. Weather courtesy of forecast.io.

Closest aviation weather report (METAR) to Peshirovo Sveti Nikole Airfield

Closest report is Skopje International Airport, 18.2 nm (33.7 km) WNW. Retrieved 2022/07/01 04:30 UTC (0 seconds ago):

LWSK 010430Z 00000KT CAVOK 21/17 Q1016 NOSIG

Closest aviation forecast (TAF) to Peshirovo Sveti Nikole Airfield

Closest forecast is Skopje International Airport, 18.2 nm (33.7 km) WNW. Retrieved 2022-07-01 03:39 UTC (47 minutes ago):

TAF LWSK 010230Z 0103/0203 VRB02KT CAVOK TEMPO 0112/0119 VRB20KT FEW030CB BKN040